Time;durP1;ratioP1;P1;durP2;ratioP2;P2;SDS_P1;SDS_P2;PMS_P1;PMS_P2;Temp;Humidity;BMP_temperature;BMP_pressure;BME280_temperature;BME280_humidity;BME280_pressure;Samples;Min_cycle;Max_cycle;Signal;HPM_P1;HPM_P2
2024/01/20 00:02:27;;;;;;;19.52;12.55;;;;;;;;;;5025375;28;42002;-68
2024/01/20 00:04:55;;;;;;;17.02;10.65;;;;;;;;;;5027431;28;41084;-68
2024/01/20 00:07:25;;;;;;;22.52;15.75;;;;;;;;;;5026521;28;41673;-68
2024/01/20 00:09:53;;;;;;;14.88;9.93;;;;;;;;;;5023030;28;41608;-66
2024/01/20 00:12:21;;;;;;;18.05;11.35;;;;;;;;;;5027437;28;42361;-70
2024/01/20 00:14:49;;;;;;;14.20;10.23;;;;;;;;;;5026258;28;41644;-68
2024/01/20 00:17:17;;;;;;;13.60;10.10;;;;;;;;;;5023136;28;42192;-66
2024/01/20 00:19:54;;;;;;;17.02;11.35;;;;;;;;;;5019481;28;42637;-66
2024/01/20 00:22:24;;;;;;;18.23;11.65;;;;;;;;;;5022845;28;43122;-66
2024/01/20 00:24:52;;;;;;;13.73;7.93;;;;;;;;;;5018716;28;40906;-65
2024/01/20 00:27:21;;;;;;;14.90;10.40;;;;;;;;;;5024205;28;42205;-66
2024/01/20 00:29:49;;;;;;;13.65;9.43;;;;;;;;;;5025339;28;42697;-66
2024/01/20 00:32:17;;;;;;;13.18;9.48;;;;;;;;;;5015453;28;41919;-66
2024/01/20 00:34:45;;;;;;;12.90;8.55;;;;;;;;;;5016510;28;41719;-66
2024/01/20 00:37:34;;;;;;;14.38;10.82;;;;;;;;;;5017042;28;42196;-66
2024/01/20 00:40:02;;;;;;;17.23;9.88;;;;;;;;;;5013694;28;42707;-66
2024/01/20 00:42:30;;;;;;;14.50;9.27;;;;;;;;;;5017564;28;41702;-66
2024/01/20 00:44:58;;;;;;;17.60;11.25;;;;;;;;;;5019596;28;42398;-66
2024/01/20 00:47:26;;;;;;;13.70;9.90;;;;;;;;;;5024078;28;42646;-66
2024/01/20 00:49:54;;;;;;;16.30;9.63;;;;;;;;;;5025653;28;42805;-66
2024/01/20 00:52:22;;;;;;;14.77;9.80;;;;;;;;;;5022339;28;41947;-65
2024/01/20 00:54:52;;;;;;;9.75;7.10;;;;;;;;;;5021263;28;41689;-66
2024/01/20 00:57:20;;;;;;;11.88;8.05;;;;;;;;;;5021176;28;42547;-66
2024/01/20 00:59:48;;;;;;;16.02;9.88;;;;;;;;;;5021299;28;41161;-66
2024/01/20 01:02:18;;;;;;;17.77;11.25;;;;;;;;;;5013269;28;42410;-66
2024/01/20 01:04:46;;;;;;;14.50;7.93;;;;;;;;;;5023061;28;44378;-66
2024/01/20 01:07:14;;;;;;;12.57;8.20;;;;;;;;;;5023671;28;41653;-66
2024/01/20 01:09:42;;;;;;;12.23;7.63;;;;;;;;;;5026731;28;43202;-66
2024/01/20 01:12:12;;;;;;;15.20;10.38;;;;;;;;;;5025844;28;41151;-66
2024/01/20 01:14:40;;;;;;;11.82;7.63;;;;;;;;;;5025462;28;41874;-66
2024/01/20 01:17:08;;;;;;;17.70;11.68;;;;;;;;;;5011927;28;42743;-66
2024/01/20 01:19:36;;;;;;;11.85;7.82;;;;;;;;;;5025366;28;41688;-66
2024/01/20 01:22:04;;;;;;;12.85;8.73;;;;;;;;;;5014543;28;41008;-66
2024/01/20 01:24:32;;;;;;;16.05;10.40;;;;;;;;;;5017145;28;41587;-66
2024/01/20 01:27:00;;;;;;;17.13;11.52;;;;;;;;;;5024874;28;41222;-66
2024/01/20 01:29:30;;;;;;;12.75;9.13;;;;;;;;;;5025895;28;41533;-66
2024/01/20 01:31:58;;;;;;;19.38;11.68;;;;;;;;;;5026020;28;41012;-66
2024/01/20 01:34:26;;;;;;;17.27;11.38;;;;;;;;;;5025441;28;41233;-66
2024/01/20 01:36:53;;;;;;;15.75;10.55;;;;;;;;;;5025807;28;42004;-66
2024/01/20 01:39:21;;;;;;;14.85;9.68;;;;;;;;;;5025388;28;41149;-66
2024/01/20 01:41:49;;;;;;;15.25;10.30;;;;;;;;;;5025538;28;42248;-66
2024/01/20 01:44:17;;;;;;;18.10;12.27;;;;;;;;;;5025552;28;42732;-66
2024/01/20 01:46:47;;;;;;;12.02;8.07;;;;;;;;;;5025411;28;41713;-66
2024/01/20 01:49:15;;;;;;;12.63;7.80;;;;;;;;;;5024577;28;41479;-66
2024/01/20 01:51:43;;;;;;;19.45;12.65;;;;;;;;;;5016465;28;41319;-66
2024/01/20 01:54:11;;;;;;;15.23;9.90;;;;;;;;;;5025220;28;43254;-66
2024/01/20 01:56:39;;;;;;;20.58;13.70;;;;;;;;;;5019322;28;41816;-67
2024/01/20 01:59:07;;;;;;;12.35;7.72;;;;;;;;;;5026315;28;42919;-66
2024/01/20 02:01:35;;;;;;;19.42;12.27;;;;;;;;;;5024443;28;42537;-66
2024/01/20 02:04:04;;;;;;;18.35;11.60;;;;;;;;;;5019555;28;42564;-66
2024/01/20 02:06:33;;;;;;;11.32;7.63;;;;;;;;;;5015755;28;40747;-66
2024/01/20 02:09:01;;;;;;;14.43;9.57;;;;;;;;;;5012800;28;42699;-66
2024/01/20 02:11:29;;;;;;;15.23;10.60;;;;;;;;;;5019174;28;42221;-66
2024/01/20 02:13:58;;;;;;;15.50;9.90;;;;;;;;;;5003542;28;40152;-66
2024/01/20 02:16:26;;;;;;;15.80;9.80;;;;;;;;;;5020924;28;41585;-66
2024/01/20 02:19:01;;;;;;;21.73;13.00;;;;;;;;;;5024448;28;41012;-65
2024/01/20 02:21:32;;;;;;;12.48;8.63;;;;;;;;;;5024738;28;41819;-66
2024/01/20 02:24:01;;;;;;;17.60;12.10;;;;;;;;;;5021116;28;41975;-66
2024/01/20 02:26:29;;;;;;;12.05;8.25;;;;;;;;;;5025047;28;39691;-66
2024/01/20 02:28:57;;;;;;;18.27;12.20;;;;;;;;;;5020691;28;42680;-66
2024/01/20 02:31:25;;;;;;;14.20;9.48;;;;;;;;;;5013730;28;41009;-66
2024/01/20 02:33:53;;;;;;;13.55;9.68;;;;;;;;;;5023912;28;42689;-66
2024/01/20 02:36:21;;;;;;;20.60;14.07;;;;;;;;;;5024887;28;41981;-65
2024/01/20 02:38:49;;;;;;;11.68;7.53;;;;;;;;;;5024000;28;41421;-66
2024/01/20 02:41:19;;;;;;;17.48;11.10;;;;;;;;;;5025161;28;41729;-66
2024/01/20 02:43:47;;;;;;;16.55;11.20;;;;;;;;;;5024262;28;42304;-66
2024/01/20 02:46:15;;;;;;;14.80;9.23;;;;;;;;;;5024319;28;42180;-66
2024/01/20 02:48:43;;;;;;;14.45;10.23;;;;;;;;;;5023041;28;42162;-66
2024/01/20 02:51:12;;;;;;;16.40;10.27;;;;;;;;;;5018671;28;42457;-66
2024/01/20 02:53:40;;;;;;;12.90;9.10;;;;;;;;;;5023493;28;41588;-66
2024/01/20 02:56:08;;;;;;;16.52;11.00;;;;;;;;;;5022769;28;42337;-66
2024/01/20 02:58:37;;;;;;;14.13;9.68;;;;;;;;;;5020104;28;41860;-66
2024/01/20 03:01:06;;;;;;;12.35;8.93;;;;;;;;;;5024040;28;42206;-66
2024/01/20 03:03:34;;;;;;;12.80;8.43;;;;;;;;;;5023726;28;41973;-66
2024/01/20 03:06:02;;;;;;;14.05;9.40;;;;;;;;;;5023685;28;42287;-66
2024/01/20 03:08:31;;;;;;;14.10;9.60;;;;;;;;;;5024834;28;20721;-66
2024/01/20 03:11:00;;;;;;;13.60;9.05;;;;;;;;;;5012207;28;41914;-66
2024/01/20 03:13:28;;;;;;;14.95;10.27;;;;;;;;;;5015008;28;42257;-66
2024/01/20 03:15:57;;;;;;;16.33;10.63;;;;;;;;;;5017021;28;41532;-66
2024/01/20 03:18:25;;;;;;;19.58;13.00;;;;;;;;;;5017652;28;39934;-66
2024/01/20 03:20:53;;;;;;;12.25;8.80;;;;;;;;;;5024584;28;41184;-66
2024/01/20 03:23:21;;;;;;;14.23;10.10;;;;;;;;;;5027568;28;41573;-66
2024/01/20 03:25:49;;;;;;;12.70;8.32;;;;;;;;;;5027090;28;42861;-66
2024/01/20 03:28:17;;;;;;;15.93;10.68;;;;;;;;;;5020060;28;41555;-66
2024/01/20 03:30:45;;;;;;;15.75;9.50;;;;;;;;;;5026980;28;42362;-66
2024/01/20 03:33:14;;;;;;;15.93;10.50;;;;;;;;;;5027080;28;41177;-66
2024/01/20 03:35:42;;;;;;;16.17;10.57;;;;;;;;;;5024370;28;42170;-66
2024/01/20 03:38:10;;;;;;;11.82;8.50;;;;;;;;;;5024748;28;41813;-66
2024/01/20 03:40:38;;;;;;;15.93;11.40;;;;;;;;;;5023252;28;41816;-66
2024/01/20 03:43:06;;;;;;;13.73;9.02;;;;;;;;;;5026733;28;41973;-66
2024/01/20 03:45:34;;;;;;;15.18;10.15;;;;;;;;;;5026207;28;41903;-65
2024/01/20 03:48:02;;;;;;;13.50;9.52;;;;;;;;;;5026263;28;41233;-66
2024/01/20 03:50:32;;;;;;;16.08;10.85;;;;;;;;;;5027162;28;42754;-66
2024/01/20 03:53:00;;;;;;;13.45;8.43;;;;;;;;;;5020525;28;42609;-66
2024/01/20 03:55:28;;;;;;;12.88;8.32;;;;;;;;;;5025453;28;42648;-66
2024/01/20 03:57:55;;;;;;;12.07;8.00;;;;;;;;;;5026122;28;42008;-66
2024/01/20 04:00:23;;;;;;;18.05;11.18;;;;;;;;;;5026093;28;41663;-66
2024/01/20 04:02:51;;;;;;;12.32;8.80;;;;;;;;;;5026798;28;42254;-66
2024/01/20 04:05:19;;;;;;;12.18;8.85;;;;;;;;;;5021110;28;41973;-66
2024/01/20 04:07:49;;;;;;;14.35;8.90;;;;;;;;;;5019321;28;42072;-66
2024/01/20 04:10:17;;;;;;;17.95;11.52;;;;;;;;;;5026090;28;43109;-66
2024/01/20 04:12:45;;;;;;;13.48;9.52;;;;;;;;;;5026236;28;42340;-66
2024/01/20 04:15:13;;;;;;;13.48;8.88;;;;;;;;;;5025977;28;41430;-66
2024/01/20 04:17:41;;;;;;;10.70;7.13;;;;;;;;;;5025896;28;41562;-66
2024/01/20 04:20:10;;;;;;;15.20;10.15;;;;;;;;;;5019008;28;42676;-66
2024/01/20 04:22:38;;;;;;;12.95;8.98;;;;;;;;;;5017891;28;42084;-66
2024/01/20 04:25:08;;;;;;;13.05;8.02;;;;;;;;;;5019408;28;41205;-67
2024/01/20 04:27:40;;;;;;;17.92;10.48;;;;;;;;;;5010286;28;42781;-66
2024/01/20 04:30:08;;;;;;;12.82;8.88;;;;;;;;;;5011956;28;43217;-66
2024/01/20 04:32:36;;;;;;;13.45;8.10;;;;;;;;;;5011257;28;41315;-66
2024/01/20 04:35:05;;;;;;;14.18;8.93;;;;;;;;;;5021306;28;41453;-66
2024/01/20 04:37:33;;;;;;;12.70;8.70;;;;;;;;;;5026618;28;43567;-66
2024/01/20 04:40:00;;;;;;;12.30;8.43;;;;;;;;;;5026331;28;41368;-66
2024/01/20 04:42:30;;;;;;;12.63;9.25;;;;;;;;;;5025965;28;41917;-65
2024/01/20 04:45:00;;;;;;;13.63;8.80;;;;;;;;;;5024245;28;42145;-66
2024/01/20 04:47:28;;;;;;;15.43;9.10;;;;;;;;;;5025840;28;41163;-66
2024/01/20 04:49:56;;;;;;;14.18;9.75;;;;;;;;;;5014083;28;42850;-66
2024/01/20 04:52:24;;;;;;;11.48;7.65;;;;;;;;;;5026153;28;42348;-66
2024/01/20 04:54:53;;;;;;;12.80;8.20;;;;;;;;;;5024227;28;42701;-66
2024/01/20 04:57:21;;;;;;;12.80;8.27;;;;;;;;;;5026209;28;43231;-66
2024/01/20 04:59:50;;;;;;;11.50;7.80;;;;;;;;;;5024393;28;41931;-66
2024/01/20 05:02:18;;;;;;;10.68;7.03;;;;;;;;;;5025751;28;41891;-66
2024/01/20 05:04:46;;;;;;;10.40;7.18;;;;;;;;;;5024764;28;41215;-66
2024/01/20 05:07:14;;;;;;;12.23;8.40;;;;;;;;;;5026760;28;41243;-66
2024/01/20 05:09:42;;;;;;;13.43;8.52;;;;;;;;;;5025432;28;41918;-66
2024/01/20 05:12:10;;;;;;;10.10;6.78;;;;;;;;;;5025287;28;41254;-66
2024/01/20 05:14:38;;;;;;;12.40;8.23;;;;;;;;;;5025212;28;42966;-66
2024/01/20 05:17:07;;;;;;;10.95;7.35;;;;;;;;;;5025239;28;41977;-66
2024/01/20 05:19:37;;;;;;;15.07;8.82;;;;;;;;;;5021906;28;40578;-65
2024/01/20 05:22:06;;;;;;;16.00;9.93;;;;;;;;;;5010497;28;41820;-66
2024/01/20 05:24:34;;;;;;;14.75;9.93;;;;;;;;;;5025639;28;41927;-66
2024/01/20 05:27:02;;;;;;;9.93;7.30;;;;;;;;;;5023797;28;42759;-66
2024/01/20 05:29:30;;;;;;;10.48;6.63;;;;;;;;;;5015522;28;42771;-66
2024/01/20 05:31:58;;;;;;;13.80;9.38;;;;;;;;;;5021950;28;41916;-66
2024/01/20 05:34:27;;;;;;;11.05;7.15;;;;;;;;;;5024540;28;41409;-66
2024/01/20 05:36:55;;;;;;;11.40;7.53;;;;;;;;;;5023663;28;42235;-66
2024/01/20 05:39:23;;;;;;;10.93;7.47;;;;;;;;;;5024391;28;40836;-66
2024/01/20 05:41:51;;;;;;;11.23;8.18;;;;;;;;;;5021818;28;41879;-66
2024/01/20 05:44:19;;;;;;;11.02;7.78;;;;;;;;;;5010917;28;42761;-66
2024/01/20 05:46:47;;;;;;;9.40;6.50;;;;;;;;;;5024260;28;40953;-65
2024/01/20 05:49:14;;;;;;;14.88;9.23;;;;;;;;;;5022112;28;40515;-66
2024/01/20 05:51:44;;;;;;;12.52;8.77;;;;;;;;;;5023894;28;40917;-66
2024/01/20 05:54:12;;;;;;;11.90;7.07;;;;;;;;;;5021636;28;42262;-66
2024/01/20 05:56:40;;;;;;;10.65;7.80;;;;;;;;;;5024602;28;42672;-66
2024/01/20 05:59:08;;;;;;;11.88;7.75;;;;;;;;;;5025414;28;41930;-66
2024/01/20 06:01:36;;;;;;;13.13;9.18;;;;;;;;;;5024454;28;41743;-66
2024/01/20 06:04:04;;;;;;;9.45;7.32;;;;;;;;;;5020821;28;41602;-66
2024/01/20 06:06:32;;;;;;;9.88;6.57;;;;;;;;;;5025632;28;41070;-67
2024/01/20 06:09:02;;;;;;;13.20;8.88;;;;;;;;;;5024385;28;41846;-66
2024/01/20 06:11:30;;;;;;;10.25;6.85;;;;;;;;;;5025735;28;42447;-66
2024/01/20 06:13:58;;;;;;;11.82;8.15;;;;;;;;;;5025869;28;41527;-66
2024/01/20 06:16:26;;;;;;;12.60;8.55;;;;;;;;;;5024864;28;42065;-66
2024/01/20 06:18:54;;;;;;;10.90;7.07;;;;;;;;;;5023111;28;41111;-66
2024/01/20 06:21:22;;;;;;;12.23;9.07;;;;;;;;;;5019026;28;41480;-66
2024/01/20 06:23:50;;;;;;;10.32;6.82;;;;;;;;;;5011090;28;41919;-66
2024/01/20 06:26:20;;;;;;;11.45;7.40;;;;;;;;;;5025667;28;42308;-66
2024/01/20 06:28:48;;;;;;;11.10;7.75;;;;;;;;;;5025637;28;41523;-66
2024/01/20 06:31:22;;;;;;;11.45;8.20;;;;;;;;;;5024760;28;42093;-67
2024/01/20 06:33:50;;;;;;;11.80;8.07;;;;;;;;;;5025312;28;41487;-66
2024/01/20 06:36:18;;;;;;;12.35;7.82;;;;;;;;;;5025029;28;42063;-66
2024/01/20 06:38:47;;;;;;;10.53;8.00;;;;;;;;;;5025005;28;41292;-66
2024/01/20 06:41:15;;;;;;;10.40;7.20;;;;;;;;;;5025995;28;41601;-66
2024/01/20 06:43:44;;;;;;;12.32;9.23;;;;;;;;;;5024446;28;42238;-66
2024/01/20 06:46:12;;;;;;;13.63;8.48;;;;;;;;;;5025710;28;42160;-66
2024/01/20 06:48:40;;;;;;;11.20;8.13;;;;;;;;;;5024555;28;41543;-66
2024/01/20 06:51:14;;;;;;;12.77;8.25;;;;;;;;;;5027125;28;33969;-66
2024/01/20 06:53:43;;;;;;;11.45;7.30;;;;;;;;;;5015391;28;41431;-66
2024/01/20 06:56:11;;;;;;;11.45;8.13;;;;;;;;;;5016695;28;42150;-66
2024/01/20 06:58:40;;;;;;;11.23;7.13;;;;;;;;;;5027495;28;41918;-66
2024/01/20 07:01:10;;;;;;;9.65;6.82;;;;;;;;;;5027787;28;42645;-66
2024/01/20 07:03:38;;;;;;;10.30;7.45;;;;;;;;;;5020488;28;42069;-66
2024/01/20 07:06:07;;;;;;;11.88;7.72;;;;;;;;;;5026978;28;42385;-66
2024/01/20 07:08:35;;;;;;;11.23;7.28;;;;;;;;;;5023240;28;41363;-66
2024/01/20 07:11:07;;;;;;;10.90;6.78;;;;;;;;;;5020097;28;41590;-66
2024/01/20 07:13:35;;;;;;;11.77;8.25;;;;;;;;;;5026250;28;42312;-66
2024/01/20 07:16:07;;;;;;;16.85;11.18;;;;;;;;;;5028185;28;42090;-66
2024/01/20 07:18:37;;;;;;;10.45;7.70;;;;;;;;;;5024342;28;41281;-66
2024/01/20 07:21:05;;;;;;;13.98;9.30;;;;;;;;;;5025627;28;42033;-65
2024/01/20 07:23:33;;;;;;;12.27;8.57;;;;;;;;;;5019205;28;41847;-66
2024/01/20 07:26:01;;;;;;;10.85;7.85;;;;;;;;;;5022351;28;41876;-66
2024/01/20 07:28:29;;;;;;;11.18;7.18;;;;;;;;;;5026119;28;41656;-66
2024/01/20 07:30:57;;;;;;;10.90;7.90;;;;;;;;;;5020455;28;41611;-66
2024/01/20 07:33:25;;;;;;;11.25;8.40;;;;;;;;;;5023157;28;41856;-66
2024/01/20 07:35:54;;;;;;;11.00;6.47;;;;;;;;;;5026930;28;43186;-66
2024/01/20 07:38:22;;;;;;;13.98;8.38;;;;;;;;;;5024224;28;41058;-66
2024/01/20 07:40:53;;;;;;;10.52;7.90;;;;;;;;;;5025650;28;41189;-66
2024/01/20 07:43:21;;;;;;;10.75;7.43;;;;;;;;;;5027942;28;42822;-66
2024/01/20 07:45:53;;;;;;;11.82;7.90;;;;;;;;;;5027118;28;41395;-66
2024/01/20 07:48:21;;;;;;;11.20;7.40;;;;;;;;;;5024513;28;42153;-66
2024/01/20 07:50:50;;;;;;;9.48;7.13;;;;;;;;;;5025807;28;42529;-66
2024/01/20 07:53:19;;;;;;;10.90;7.18;;;;;;;;;;5026800;28;41065;-66
2024/01/20 07:55:48;;;;;;;11.30;8.15;;;;;;;;;;5027901;28;41649;-66
2024/01/20 07:58:15;;;;;;;10.30;7.50;;;;;;;;;;5024975;28;42335;-66
2024/01/20 08:00:43;;;;;;;10.15;7.55;;;;;;;;;;5012637;28;41978;-66
2024/01/20 08:03:11;;;;;;;13.85;9.40;;;;;;;;;;5021887;28;41684;-66
2024/01/20 08:05:39;;;;;;;11.02;7.22;;;;;;;;;;5014489;28;41357;-66
2024/01/20 08:08:07;;;;;;;9.77;7.28;;;;;;;;;;5024120;28;42756;-66
2024/01/20 08:10:36;;;;;;;9.80;7.15;;;;;;;;;;5022138;28;42107;-66
2024/01/20 08:13:04;;;;;;;12.05;8.35;;;;;;;;;;5025988;28;42201;-66
2024/01/20 08:15:32;;;;;;;13.48;8.65;;;;;;;;;;5024791;28;41701;-66
2024/01/20 08:18:00;;;;;;;12.07;8.25;;;;;;;;;;5024939;28;41456;-66
2024/01/20 08:20:28;;;;;;;10.70;7.65;;;;;;;;;;5025957;28;41781;-66
2024/01/20 08:22:57;;;;;;;9.10;6.95;;;;;;;;;;5022887;28;42205;-66
2024/01/20 08:25:25;;;;;;;9.27;6.47;;;;;;;;;;5026455;28;40759;-66
2024/01/20 08:27:54;;;;;;;10.13;6.43;;;;;;;;;;5024661;28;41640;-66
2024/01/20 08:30:22;;;;;;;9.48;6.35;;;;;;;;;;5021840;28;42111;-66
2024/01/20 08:32:50;;;;;;;12.05;7.88;;;;;;;;;;5023500;28;42462;-67
2024/01/20 08:35:21;;;;;;;13.32;8.93;;;;;;;;;;5023805;28;41607;-66
2024/01/20 08:37:49;;;;;;;10.50;6.40;;;;;;;;;;5008408;28;42065;-67
2024/01/20 08:40:16;;;;;;;8.43;6.30;;;;;;;;;;5018097;28;41531;-67
2024/01/20 08:42:44;;;;;;;32.85;6.95;;;;;;;;;;5024034;28;41643;-67
2024/01/20 08:45:14;;;;;;;7.78;5.72;;;;;;;;;;5024393;28;41374;-65
2024/01/20 08:47:42;;;;;;;11.10;7.45;;;;;;;;;;5014807;28;41492;-67
2024/01/20 08:50:10;;;;;;;11.30;7.43;;;;;;;;;;5026144;28;42249;-67
2024/01/20 08:52:39;;;;;;;7.90;5.70;;;;;;;;;;5017906;28;41408;-67
2024/01/20 08:55:08;;;;;;;11.00;6.88;;;;;;;;;;5024344;28;41897;-67
2024/01/20 08:57:36;;;;;;;10.98;7.95;;;;;;;;;;5018575;28;41986;-67
2024/01/20 09:00:05;;;;;;;13.90;6.95;;;;;;;;;;5019997;28;40762;-69
2024/01/20 09:02:34;;;;;;;10.10;6.50;;;;;;;;;;5021815;28;42228;-68
2024/01/20 09:05:03;;;;;;;10.48;5.68;;;;;;;;;;5017338;28;40918;-76
2024/01/20 09:07:31;;;;;;;8.13;5.68;;;;;;;;;;5017452;28;41630;-74
2024/01/20 09:09:58;;;;;;;15.05;7.75;;;;;;;;;;5017088;28;42602;-70
2024/01/20 09:12:27;;;;;;;10.73;7.10;;;;;;;;;;5012714;28;42080;-68
2024/01/20 09:14:55;;;;;;;9.15;6.30;;;;;;;;;;5019659;28;41858;-68
2024/01/20 09:17:23;;;;;;;10.00;6.75;;;;;;;;;;5022797;28;41699;-68
2024/01/20 09:19:52;;;;;;;13.15;6.28;;;;;;;;;;5009350;28;41209;-68
2024/01/20 09:22:20;;;;;;;6.43;4.40;;;;;;;;;;5016691;28;41597;-68
2024/01/20 09:24:48;;;;;;;9.45;5.95;;;;;;;;;;5017180;28;41995;-69
2024/01/20 09:27:17;;;;;;;7.72;5.63;;;;;;;;;;5019108;28;42679;-70
2024/01/20 09:29:45;;;;;;;9.02;5.47;;;;;;;;;;5025664;28;43023;-70
2024/01/20 09:32:12;;;;;;;15.38;9.32;;;;;;;;;;5024567;28;41830;-70
2024/01/20 09:34:40;;;;;;;7.80;5.55;;;;;;;;;;5019113;28;42021;-72
2024/01/20 09:37:10;;;;;;;15.05;6.53;;;;;;;;;;5016490;28;42050;-72
2024/01/20 09:39:39;;;;;;;14.90;6.57;;;;;;;;;;5015083;28;41175;-74
2024/01/20 09:42:07;;;;;;;11.20;7.22;;;;;;;;;;5016154;28;41379;-69
2024/01/20 09:44:35;;;;;;;6.43;4.28;;;;;;;;;;5018603;28;42811;-72
2024/01/20 09:47:03;;;;;;;8.38;5.20;;;;;;;;;;5018636;28;41965;-76
2024/01/20 09:49:31;;;;;;;10.57;6.80;;;;;;;;;;5024898;28;42377;-73
2024/01/20 09:52:00;;;;;;;8.32;5.95;;;;;;;;;;5022781;28;42112;-74
2024/01/20 09:54:29;;;;;;;9.55;6.78;;;;;;;;;;5014245;28;41405;-73
2024/01/20 09:56:57;;;;;;;10.82;6.53;;;;;;;;;;5025021;28;41884;-73
2024/01/20 09:59:25;;;;;;;11.30;8.30;;;;;;;;;;5026855;28;41024;-73
2024/01/20 10:01:53;;;;;;;10.82;7.20;;;;;;;;;;5023639;28;41138;-74
2024/01/20 10:04:21;;;;;;;11.18;6.80;;;;;;;;;;5025288;28;43028;-73
2024/01/20 10:06:51;;;;;;;13.57;9.00;;;;;;;;;;5015777;28;41445;-74
2024/01/20 10:09:19;;;;;;;11.02;7.32;;;;;;;;;;5025132;28;42161;-74
2024/01/20 10:11:48;;;;;;;9.35;6.60;;;;;;;;;;5018369;28;41213;-75
2024/01/20 10:14:16;;;;;;;11.82;6.22;;;;;;;;;;5019483;28;41356;-75
2024/01/20 10:16:44;;;;;;;7.82;5.38;;;;;;;;;;5015951;28;41987;-72
2024/01/20 10:19:12;;;;;;;9.82;7.03;;;;;;;;;;5018358;28;42232;-74
2024/01/20 10:21:40;;;;;;;11.30;7.57;;;;;;;;;;5022741;28;41341;-76
2024/01/20 10:24:09;;;;;;;8.93;6.75;;;;;;;;;;5020816;28;42463;-77
2024/01/20 10:26:43;;;;;;;9.60;6.25;;;;;;;;;;5025550;28;41210;-75
2024/01/20 10:29:12;;;;;;;15.30;6.85;;;;;;;;;;5019560;28;41206;-74
2024/01/20 10:31:42;;;;;;;9.65;6.07;;;;;;;;;;5019382;28;41402;-75
2024/01/20 10:34:10;;;;;;;7.95;6.07;;;;;;;;;;5023549;28;41545;-72
2024/01/20 10:36:38;;;;;;;10.27;6.82;;;;;;;;;;5018997;28;41545;-76
2024/01/20 10:39:06;;;;;;;7.72;5.45;;;;;;;;;;5014858;28;41493;-74
2024/01/20 10:41:34;;;;;;;10.10;7.15;;;;;;;;;;5025671;28;41390;-75
2024/01/20 10:44:02;;;;;;;8.93;6.28;;;;;;;;;;5018609;28;42675;-76
2024/01/20 10:46:34;;;;;;;9.35;6.38;;;;;;;;;;5017246;28;41794;-76
2024/01/20 10:49:01;;;;;;;10.82;7.13;;;;;;;;;;5015815;28;42701;-75
2024/01/20 10:51:30;;;;;;;17.95;6.10;;;;;;;;;;5010748;28;42450;-76
2024/01/20 10:53:58;;;;;;;9.88;7.32;;;;;;;;;;5017654;28;41874;-75
2024/01/20 10:56:26;;;;;;;12.38;5.93;;;;;;;;;;5021021;28;42824;-76
2024/01/20 10:58:55;;;;;;;12.98;8.00;;;;;;;;;;5022915;28;41952;-75
2024/01/20 11:01:23;;;;;;;9.52;6.22;;;;;;;;;;5018883;28;41621;-75
2024/01/20 11:03:52;;;;;;;9.73;6.63;;;;;;;;;;5020495;28;42618;-75
2024/01/20 11:06:20;;;;;;;9.40;5.75;;;;;;;;;;5024608;28;42420;-75
2024/01/20 11:08:49;;;;;;;9.05;6.32;;;;;;;;;;5014683;28;41839;-76
2024/01/20 11:11:18;;;;;;;7.05;5.25;;;;;;;;;;5023024;28;41684;-76
2024/01/20 11:13:46;;;;;;;11.48;7.90;;;;;;;;;;5024148;28;41383;-76
2024/01/20 11:16:18;;;;;;;8.95;6.20;;;;;;;;;;5021448;28;42287;-76
2024/01/20 11:18:46;;;;;;;10.43;7.10;;;;;;;;;;5024836;28;41458;-75
2024/01/20 11:21:16;;;;;;;9.02;6.35;;;;;;;;;;5023004;28;41886;-75
2024/01/20 11:23:45;;;;;;;11.48;5.97;;;;;;;;;;5022884;28;42298;-76
2024/01/20 11:26:13;;;;;;;9.32;6.20;;;;;;;;;;5019866;28;41353;-75
2024/01/20 11:28:43;;;;;;;10.00;6.53;;;;;;;;;;5020325;28;41529;-71
2024/01/20 11:31:20;;;;;;;11.90;7.75;;;;;;;;;;5016028;28;43025;-73
2024/01/20 11:33:48;;;;;;;10.15;6.43;;;;;;;;;;5021425;28;40754;-70
2024/01/20 11:36:17;;;;;;;7.28;4.88;;;;;;;;;;5008059;28;42245;-73
2024/01/20 11:38:45;;;;;;;8.27;5.80;;;;;;;;;;5022486;28;41360;-70
2024/01/20 11:41:16;;;;;;;8.70;6.47;;;;;;;;;;5024369;28;41671;-69
2024/01/20 11:43:45;;;;;;;10.15;6.47;;;;;;;;;;5022641;28;42226;-70
2024/01/20 11:46:13;;;;;;;11.70;6.70;;;;;;;;;;5027082;28;41135;-71
2024/01/20 11:48:42;;;;;;;8.27;6.05;;;;;;;;;;5027114;28;42234;-70
2024/01/20 11:51:10;;;;;;;7.78;5.13;;;;;;;;;;5027645;28;41933;-69
2024/01/20 11:53:39;;;;;;;8.45;5.72;;;;;;;;;;5026916;28;40633;-71
2024/01/20 11:56:07;;;;;;;7.07;5.38;;;;;;;;;;5024338;28;42731;-70
2024/01/20 11:58:35;;;;;;;7.55;5.05;;;;;;;;;;5026320;28;40742;-69
2024/01/20 12:01:04;;;;;;;8.40;6.47;;;;;;;;;;5018579;28;42154;-70
2024/01/20 12:03:32;;;;;;;8.13;5.95;;;;;;;;;;5018809;28;42066;-69
2024/01/20 12:06:04;;;;;;;12.88;8.10;;;;;;;;;;5026116;28;41124;-71
2024/01/20 12:08:32;;;;;;;7.95;6.18;;;;;;;;;;5024124;28;42539;-72
2024/01/20 12:11:01;;;;;;;8.73;6.03;;;;;;;;;;5022815;28;42228;-71
2024/01/20 12:13:32;;;;;;;9.13;7.10;;;;;;;;;;5026240;28;42277;-72
2024/01/20 12:16:00;;;;;;;8.25;5.38;;;;;;;;;;5025680;28;42089;-73
2024/01/20 12:18:28;;;;;;;8.27;5.97;;;;;;;;;;5028682;28;42699;-74
2024/01/20 12:20:58;;;;;;;11.13;7.55;;;;;;;;;;5022427;28;42208;-73
2024/01/20 12:23:26;;;;;;;11.05;7.35;;;;;;;;;;5028714;28;42747;-73
2024/01/20 12:25:54;;;;;;;9.07;4.78;;;;;;;;;;5027086;28;41037;-73
2024/01/20 12:28:24;;;;;;;10.85;8.77;;;;;;;;;;5019154;28;41218;-72
2024/01/20 12:30:52;;;;;;;10.02;5.88;;;;;;;;;;5021768;28;42349;-71
2024/01/20 12:33:20;;;;;;;7.95;5.20;;;;;;;;;;5020070;28;41535;-71
2024/01/20 12:35:48;;;;;;;8.52;6.43;;;;;;;;;;5014706;28;41197;-73
2024/01/20 12:38:16;;;;;;;7.65;5.90;;;;;;;;;;5020626;28;41417;-71
2024/01/20 12:40:44;;;;;;;6.80;5.28;;;;;;;;;;5021397;28;41400;-73
2024/01/20 12:43:12;;;;;;;6.63;5.45;;;;;;;;;;5026255;28;41615;-72
2024/01/20 12:45:42;;;;;;;7.05;4.97;;;;;;;;;;5020530;28;40745;-75
2024/01/20 12:48:11;;;;;;;7.70;5.43;;;;;;;;;;5025224;28;42721;-73
2024/01/20 12:50:39;;;;;;;6.90;4.78;;;;;;;;;;5021869;28;42794;-72
2024/01/20 12:53:07;;;;;;;8.02;5.32;;;;;;;;;;5017665;28;41077;-72
2024/01/20 12:55:35;;;;;;;11.60;6.38;;;;;;;;;;5024742;28;41634;-70
2024/01/20 12:58:03;;;;;;;9.55;7.38;;;;;;;;;;5017331;28;42577;-75
2024/01/20 13:00:31;;;;;;;10.20;5.75;;;;;;;;;;5025221;28;40845;-76
2024/01/20 13:03:01;;;;;;;8.38;6.03;;;;;;;;;;5017437;28;42266;-74
2024/01/20 13:05:29;;;;;;;9.30;6.65;;;;;;;;;;5020441;28;41886;-72
2024/01/20 13:07:57;;;;;;;10.25;5.90;;;;;;;;;;5024927;28;42412;-73
2024/01/20 13:10:25;;;;;;;12.57;6.93;;;;;;;;;;5025993;28;41466;-70
2024/01/20 13:12:53;;;;;;;12.10;6.63;;;;;;;;;;5024860;28;42373;-71
2024/01/20 13:15:23;;;;;;;11.98;6.28;;;;;;;;;;5026239;28;41577;-70
2024/01/20 13:17:51;;;;;;;15.68;7.13;;;;;;;;;;5025624;28;43288;-70
2024/01/20 13:20:22;;;;;;;15.63;6.43;;;;;;;;;;5018743;28;41365;-70
2024/01/20 13:22:50;;;;;;;15.75;6.32;;;;;;;;;;5006196;28;41245;-69
2024/01/20 13:25:18;;;;;;;15.30;6.30;;;;;;;;;;5005468;28;41548;-70
2024/01/20 13:27:46;;;;;;;17.30;7.15;;;;;;;;;;5000438;28;41547;-73
2024/01/20 13:30:14;;;;;;;12.95;7.38;;;;;;;;;;5004003;28;43632;-73
2024/01/20 13:32:42;;;;;;;15.82;9.02;;;;;;;;;;5000746;28;41400;-73
2024/01/20 13:35:10;;;;;;;12.32;6.53;;;;;;;;;;5000820;28;42003;-73
2024/01/20 13:37:40;;;;;;;13.80;8.25;;;;;;;;;;5006002;28;42111;-72
2024/01/20 13:40:09;;;;;;;17.05;7.40;;;;;;;;;;5003944;28;41452;-73
2024/01/20 13:42:37;;;;;;;12.00;6.35;;;;;;;;;;5001914;28;42216;-73
2024/01/20 13:45:09;;;;;;;11.52;7.30;;;;;;;;;;4996692;28;41556;-74
2024/01/20 13:47:37;;;;;;;13.38;6.93;;;;;;;;;;5000259;28;42255;-74
2024/01/20 13:50:06;;;;;;;11.30;6.20;;;;;;;;;;4998841;28;41955;-73
2024/01/20 13:52:34;;;;;;;10.00;6.25;;;;;;;;;;5003783;28;41024;-74
2024/01/20 13:55:04;;;;;;;11.90;6.00;;;;;;;;;;5004161;28;41217;-74
2024/01/20 13:57:33;;;;;;;11.32;6.03;;;;;;;;;;5004802;28;42679;-74
2024/01/20 14:00:01;;;;;;;10.13;5.88;;;;;;;;;;5001827;28;41761;-73
2024/01/20 14:02:33;;;;;;;8.77;6.13;;;;;;;;;;5005908;28;42015;-74
2024/01/20 14:05:02;;;;;;;10.30;5.10;;;;;;;;;;5005838;28;42037;-74
2024/01/20 14:07:30;;;;;;;9.18;5.85;;;;;;;;;;5004866;28;40850;-74
2024/01/20 14:09:58;;;;;;;12.52;6.75;;;;;;;;;;5004339;28;42257;-73
2024/01/20 14:12:28;;;;;;;8.68;5.60;;;;;;;;;;5005062;28;41965;-73
2024/01/20 14:14:56;;;;;;;9.02;5.47;;;;;;;;;;5003644;28;42661;-72
2024/01/20 14:17:24;;;;;;;8.43;5.57;;;;;;;;;;5003965;28;42051;-73
2024/01/20 14:19:52;;;;;;;10.60;6.55;;;;;;;;;;5004957;28;41795;-73
2024/01/20 14:22:22;;;;;;;10.32;5.93;;;;;;;;;;5016393;28;41796;-73
2024/01/20 14:24:50;;;;;;;10.13;6.82;;;;;;;;;;5024794;28;41775;-74
2024/01/20 14:27:18;;;;;;;7.93;6.10;;;;;;;;;;5023643;28;41367;-73
2024/01/20 14:29:47;;;;;;;9.88;6.05;;;;;;;;;;5025179;28;41564;-73
2024/01/20 14:32:15;;;;;;;7.78;5.38;;;;;;;;;;5024815;28;42273;-73
2024/01/20 14:34:43;;;;;;;10.90;6.32;;;;;;;;;;5016735;28;42150;-73
2024/01/20 14:37:11;;;;;;;6.85;5.75;;;;;;;;;;5024905;28;42427;-73
2024/01/20 14:39:40;;;;;;;10.02;7.30;;;;;;;;;;5023788;28;42239;-73